sensor_id;sensor_type;location;lat;lon;timestamp;P1;durP1;ratioP1;P2;durP2;ratioP2
36137;SDS011;22194;50.046;21.954;2022-12-18T00:00:07;92.10;;;34.80;;
36137;SDS011;22194;50.046;21.954;2022-12-18T00:02:55;86.80;;;32.70;;
36137;SDS011;22194;50.046;21.954;2022-12-18T00:05:24;80.10;;;31.40;;
36137;SDS011;22194;50.046;21.954;2022-12-18T00:07:52;93.10;;;34.80;;
36137;SDS011;22194;50.046;21.954;2022-12-18T00:10:20;83.80;;;29.40;;
36137;SDS011;22194;50.046;21.954;2022-12-18T00:12:48;97.50;;;34.50;;
36137;SDS011;22194;50.046;21.954;2022-12-18T00:15:16;83.30;;;32.80;;
36137;SDS011;22194;50.046;21.954;2022-12-18T00:17:44;97.80;;;38.80;;
36137;SDS011;22194;50.046;21.954;2022-12-18T00:20:12;94.10;;;36.90;;
36137;SDS011;22194;50.046;21.954;2022-12-18T00:22:40;102.90;;;36.70;;
36137;SDS011;22194;50.046;21.954;2022-12-18T00:25:08;89.10;;;35.50;;
36137;SDS011;22194;50.046;21.954;2022-12-18T00:27:36;91.00;;;32.70;;
36137;SDS011;22194;50.046;21.954;2022-12-18T00:30:04;92.50;;;35.30;;
36137;SDS011;22194;50.046;21.954;2022-12-18T00:32:32;89.80;;;33.50;;
36137;SDS011;22194;50.046;21.954;2022-12-18T00:35:00;95.20;;;35.20;;
36137;SDS011;22194;50.046;21.954;2022-12-18T00:37:28;81.70;;;32.30;;
36137;SDS011;22194;50.046;21.954;2022-12-18T00:39:57;89.50;;;31.90;;
36137;SDS011;22194;50.046;21.954;2022-12-18T00:42:25;88.60;;;34.20;;
36137;SDS011;22194;50.046;21.954;2022-12-18T00:45:11;88.80;;;34.90;;
36137;SDS011;22194;50.046;21.954;2022-12-18T00:47:40;84.10;;;32.00;;
36137;SDS011;22194;50.046;21.954;2022-12-18T00:50:08;80.10;;;31.10;;
36137;SDS011;22194;50.046;21.954;2022-12-18T00:52:40;79.10;;;32.40;;
36137;SDS011;22194;50.046;21.954;2022-12-18T00:55:09;76.00;;;31.10;;
36137;SDS011;22194;50.046;21.954;2022-12-18T00:57:38;76.90;;;30.90;;
36137;SDS011;22194;50.046;21.954;2022-12-18T01:00:08;79.10;;;29.90;;
36137;SDS011;22194;50.046;21.954;2022-12-18T01:02:40;74.50;;;30.10;;
36137;SDS011;22194;50.046;21.954;2022-12-18T01:05:10;74.30;;;30.80;;
36137;SDS011;22194;50.046;21.954;2022-12-18T01:07:40;76.10;;;29.00;;
36137;SDS011;22194;50.046;21.954;2022-12-18T01:10:09;71.70;;;27.10;;
36137;SDS011;22194;50.046;21.954;2022-12-18T01:12:39;68.90;;;27.40;;
36137;SDS011;22194;50.046;21.954;2022-12-18T01:15:08;65.30;;;26.80;;
36137;SDS011;22194;50.046;21.954;2022-12-18T01:17:39;71.20;;;27.90;;
36137;SDS011;22194;50.046;21.954;2022-12-18T01:20:08;69.70;;;28.70;;
36137;SDS011;22194;50.046;21.954;2022-12-18T01:22:38;61.90;;;25.60;;
36137;SDS011;22194;50.046;21.954;2022-12-18T01:25:07;66.40;;;25.60;;
36137;SDS011;22194;50.046;21.954;2022-12-18T01:27:35;56.20;;;21.70;;
36137;SDS011;22194;50.046;21.954;2022-12-18T01:30:03;58.50;;;24.10;;
36137;SDS011;22194;50.046;21.954;2022-12-18T01:32:32;59.40;;;23.90;;
36137;SDS011;22194;50.046;21.954;2022-12-18T01:35:01;58.40;;;23.50;;
36137;SDS011;22194;50.046;21.954;2022-12-18T01:37:29;56.10;;;22.60;;
36137;SDS011;22194;50.046;21.954;2022-12-18T01:39:57;56.40;;;24.10;;
36137;SDS011;22194;50.046;21.954;2022-12-18T01:42:25;58.30;;;22.20;;
36137;SDS011;22194;50.046;21.954;2022-12-18T01:44:58;54.30;;;21.30;;
36137;SDS011;22194;50.046;21.954;2022-12-18T01:47:39;56.60;;;19.90;;
36137;SDS011;22194;50.046;21.954;2022-12-18T01:52:46;54.80;;;22.50;;
36137;SDS011;22194;50.046;21.954;2022-12-18T01:55:18;57.10;;;21.70;;
36137;SDS011;22194;50.046;21.954;2022-12-18T01:57:51;58.20;;;22.10;;
36137;SDS011;22194;50.046;21.954;2022-12-18T02:00:22;60.40;;;21.30;;
36137;SDS011;22194;50.046;21.954;2022-12-18T02:02:51;54.40;;;22.10;;
36137;SDS011;22194;50.046;21.954;2022-12-18T02:05:27;53.90;;;21.10;;
36137;SDS011;22194;50.046;21.954;2022-12-18T02:10:56;68.30;;;23.10;;
36137;SDS011;22194;50.046;21.954;2022-12-18T02:18:45;64.50;;;27.40;;
36137;SDS011;22194;50.046;21.954;2022-12-18T02:21:26;60.30;;;21.30;;
36137;SDS011;22194;50.046;21.954;2022-12-18T02:24:04;63.50;;;24.50;;
36137;SDS011;22194;50.046;21.954;2022-12-18T02:26:58;66.60;;;22.80;;
36137;SDS011;22194;50.046;21.954;2022-12-18T02:29:52;58.70;;;24.10;;
36137;SDS011;22194;50.046;21.954;2022-12-18T02:32:27;59.90;;;20.60;;
36137;SDS011;22194;50.046;21.954;2022-12-18T02:34:58;57.10;;;22.00;;
36137;SDS011;22194;50.046;21.954;2022-12-18T02:37:29;51.70;;;21.30;;
36137;SDS011;22194;50.046;21.954;2022-12-18T02:40:00;54.70;;;20.20;;
36137;SDS011;22194;50.046;21.954;2022-12-18T02:42:30;49.00;;;19.40;;
36137;SDS011;22194;50.046;21.954;2022-12-18T02:44:59;55.10;;;21.70;;
36137;SDS011;22194;50.046;21.954;2022-12-18T02:47:29;52.80;;;17.80;;
36137;SDS011;22194;50.046;21.954;2022-12-18T02:59:05;52.20;;;19.80;;
36137;SDS011;22194;50.046;21.954;2022-12-18T03:01:58;46.90;;;17.90;;
36137;SDS011;22194;50.046;21.954;2022-12-18T03:04:38;54.10;;;18.40;;
36137;SDS011;22194;50.046;21.954;2022-12-18T03:07:15;48.10;;;17.30;;
36137;SDS011;22194;50.046;21.954;2022-12-18T03:09:53;48.50;;;16.50;;
36137;SDS011;22194;50.046;21.954;2022-12-18T03:12:27;42.10;;;15.50;;
36137;SDS011;22194;50.046;21.954;2022-12-18T03:17:32;45.10;;;17.10;;
36137;SDS011;22194;50.046;21.954;2022-12-18T03:20:10;41.20;;;16.80;;
36137;SDS011;22194;50.046;21.954;2022-12-18T03:22:42;48.60;;;17.40;;
36137;SDS011;22194;50.046;21.954;2022-12-18T03:25:13;44.60;;;17.80;;
36137;SDS011;22194;50.046;21.954;2022-12-18T03:27:46;42.40;;;17.20;;
36137;SDS011;22194;50.046;21.954;2022-12-18T03:30:19;45.50;;;18.50;;
36137;SDS011;22194;50.046;21.954;2022-12-18T03:32:48;43.50;;;17.90;;
36137;SDS011;22194;50.046;21.954;2022-12-18T03:35:28;45.60;;;17.40;;
36137;SDS011;22194;50.046;21.954;2022-12-18T03:38:01;47.50;;;17.70;;
36137;SDS011;22194;50.046;21.954;2022-12-18T03:40:32;43.40;;;16.80;;
36137;SDS011;22194;50.046;21.954;2022-12-18T03:43:13;45.30;;;17.60;;
36137;SDS011;22194;50.046;21.954;2022-12-18T03:45:51;46.90;;;17.50;;
36137;SDS011;22194;50.046;21.954;2022-12-18T03:56:17;40.60;;;16.10;;
36137;SDS011;22194;50.046;21.954;2022-12-18T03:58:48;45.20;;;17.40;;
36137;SDS011;22194;50.046;21.954;2022-12-18T04:01:18;42.00;;;16.50;;
36137;SDS011;22194;50.046;21.954;2022-12-18T04:03:50;34.00;;;13.40;;
36137;SDS011;22194;50.046;21.954;2022-12-18T04:06:19;40.00;;;16.10;;
36137;SDS011;22194;50.046;21.954;2022-12-18T04:08:48;34.30;;;14.60;;
36137;SDS011;22194;50.046;21.954;2022-12-18T04:11:17;37.80;;;14.50;;
36137;SDS011;22194;50.046;21.954;2022-12-18T04:13:45;38.10;;;15.80;;
36137;SDS011;22194;50.046;21.954;2022-12-18T04:16:13;37.10;;;15.00;;
36137;SDS011;22194;50.046;21.954;2022-12-18T04:18:41;42.80;;;15.90;;
36137;SDS011;22194;50.046;21.954;2022-12-18T04:21:10;40.10;;;15.30;;
36137;SDS011;22194;50.046;21.954;2022-12-18T04:23:38;40.00;;;16.10;;
36137;SDS011;22194;50.046;21.954;2022-12-18T04:26:06;39.20;;;17.50;;
36137;SDS011;22194;50.046;21.954;2022-12-18T04:28:34;34.80;;;14.60;;
36137;SDS011;22194;50.046;21.954;2022-12-18T04:31:02;41.70;;;14.60;;
36137;SDS011;22194;50.046;21.954;2022-12-18T04:33:31;36.90;;;15.00;;
36137;SDS011;22194;50.046;21.954;2022-12-18T04:35:59;44.00;;;18.20;;
36137;SDS011;22194;50.046;21.954;2022-12-18T04:38:27;37.80;;;17.00;;
36137;SDS011;22194;50.046;21.954;2022-12-18T04:40:55;45.30;;;16.60;;
36137;SDS011;22194;50.046;21.954;2022-12-18T04:43:23;39.00;;;14.80;;
36137;SDS011;22194;50.046;21.954;2022-12-18T04:45:52;40.50;;;14.80;;
36137;SDS011;22194;50.046;21.954;2022-12-18T04:48:20;37.30;;;13.90;;
36137;SDS011;22194;50.046;21.954;2022-12-18T04:50:48;38.20;;;14.80;;
36137;SDS011;22194;50.046;21.954;2022-12-18T04:53:16;32.40;;;14.20;;
36137;SDS011;22194;50.046;21.954;2022-12-18T04:55:45;38.00;;;15.40;;
36137;SDS011;22194;50.046;21.954;2022-12-18T04:58:13;34.70;;;15.50;;
36137;SDS011;22194;50.046;21.954;2022-12-18T05:00:40;38.40;;;15.50;;
36137;SDS011;22194;50.046;21.954;2022-12-18T05:03:09;39.60;;;14.90;;
36137;SDS011;22194;50.046;21.954;2022-12-18T05:05:37;37.40;;;13.40;;
36137;SDS011;22194;50.046;21.954;2022-12-18T05:08:04;44.10;;;15.70;;
36137;SDS011;22194;50.046;21.954;2022-12-18T05:10:33;35.10;;;12.90;;
36137;SDS011;22194;50.046;21.954;2022-12-18T05:13:04;40.20;;;16.00;;
36137;SDS011;22194;50.046;21.954;2022-12-18T05:15:33;36.40;;;14.70;;
36137;SDS011;22194;50.046;21.954;2022-12-18T05:18:02;34.80;;;13.80;;
36137;SDS011;22194;50.046;21.954;2022-12-18T05:20:32;39.40;;;15.50;;
36137;SDS011;22194;50.046;21.954;2022-12-18T05:23:00;44.10;;;17.20;;
36137;SDS011;22194;50.046;21.954;2022-12-18T05:25:28;41.90;;;16.60;;
36137;SDS011;22194;50.046;21.954;2022-12-18T05:27:57;37.60;;;14.90;;
36137;SDS011;22194;50.046;21.954;2022-12-18T05:30:26;42.20;;;17.20;;
36137;SDS011;22194;50.046;21.954;2022-12-18T05:32:55;39.10;;;15.70;;
36137;SDS011;22194;50.046;21.954;2022-12-18T05:35:23;37.60;;;15.10;;
36137;SDS011;22194;50.046;21.954;2022-12-18T05:37:52;41.90;;;14.70;;
36137;SDS011;22194;50.046;21.954;2022-12-18T05:40:20;40.30;;;14.80;;
36137;SDS011;22194;50.046;21.954;2022-12-18T05:42:48;41.50;;;17.20;;
36137;SDS011;22194;50.046;21.954;2022-12-18T05:45:17;36.70;;;16.50;;
36137;SDS011;22194;50.046;21.954;2022-12-18T05:47:45;40.50;;;15.00;;
36137;SDS011;22194;50.046;21.954;2022-12-18T05:50:13;36.60;;;13.50;;
36137;SDS011;22194;50.046;21.954;2022-12-18T05:52:41;39.40;;;15.90;;
36137;SDS011;22194;50.046;21.954;2022-12-18T05:55:09;35.30;;;14.40;;
36137;SDS011;22194;50.046;21.954;2022-12-18T05:57:37;35.40;;;14.30;;
36137;SDS011;22194;50.046;21.954;2022-12-18T06:00:05;35.60;;;14.80;;
36137;SDS011;22194;50.046;21.954;2022-12-18T06:02:34;35.70;;;14.30;;
36137;SDS011;22194;50.046;21.954;2022-12-18T06:05:03;32.50;;;14.20;;
36137;SDS011;22194;50.046;21.954;2022-12-18T06:07:31;41.10;;;18.10;;
36137;SDS011;22194;50.046;21.954;2022-12-18T06:09:59;40.60;;;17.10;;
36137;SDS011;22194;50.046;21.954;2022-12-18T06:12:27;35.30;;;14.20;;
36137;SDS011;22194;50.046;21.954;2022-12-18T06:14:55;38.50;;;15.00;;
36137;SDS011;22194;50.046;21.954;2022-12-18T06:17:23;36.40;;;14.60;;
36137;SDS011;22194;50.046;21.954;2022-12-18T06:19:56;39.90;;;16.10;;
36137;SDS011;22194;50.046;21.954;2022-12-18T06:22:24;40.10;;;16.40;;
36137;SDS011;22194;50.046;21.954;2022-12-18T06:24:53;38.30;;;16.10;;
36137;SDS011;22194;50.046;21.954;2022-12-18T06:27:21;36.70;;;15.20;;
36137;SDS011;22194;50.046;21.954;2022-12-18T06:29:49;38.80;;;16.60;;
36137;SDS011;22194;50.046;21.954;2022-12-18T06:32:17;34.80;;;14.90;;
36137;SDS011;22194;50.046;21.954;2022-12-18T06:34:45;42.20;;;15.50;;
36137;SDS011;22194;50.046;21.954;2022-12-18T06:37:13;40.30;;;16.90;;
36137;SDS011;22194;50.046;21.954;2022-12-18T06:39:41;38.00;;;15.20;;
36137;SDS011;22194;50.046;21.954;2022-12-18T06:42:09;43.30;;;17.70;;
36137;SDS011;22194;50.046;21.954;2022-12-18T06:44:37;40.40;;;16.30;;
36137;SDS011;22194;50.046;21.954;2022-12-18T06:47:05;39.60;;;17.20;;
36137;SDS011;22194;50.046;21.954;2022-12-18T06:49:33;44.00;;;18.60;;
36137;SDS011;22194;50.046;21.954;2022-12-18T06:52:02;41.10;;;16.40;;
36137;SDS011;22194;50.046;21.954;2022-12-18T06:54:30;44.60;;;17.50;;
36137;SDS011;22194;50.046;21.954;2022-12-18T06:56:58;44.70;;;19.60;;
36137;SDS011;22194;50.046;21.954;2022-12-18T06:59:26;45.90;;;21.10;;
36137;SDS011;22194;50.046;21.954;2022-12-18T07:01:54;44.10;;;17.30;;
36137;SDS011;22194;50.046;21.954;2022-12-18T07:04:27;45.90;;;19.20;;
36137;SDS011;22194;50.046;21.954;2022-12-18T07:06:56;46.50;;;21.50;;
36137;SDS011;22194;50.046;21.954;2022-12-18T07:09:25;40.10;;;17.40;;
36137;SDS011;22194;50.046;21.954;2022-12-18T07:11:53;44.10;;;19.40;;
36137;SDS011;22194;50.046;21.954;2022-12-18T07:14:22;46.20;;;20.00;;
36137;SDS011;22194;50.046;21.954;2022-12-18T07:16:50;40.50;;;17.10;;
36137;SDS011;22194;50.046;21.954;2022-12-18T07:19:18;45.40;;;18.70;;
36137;SDS011;22194;50.046;21.954;2022-12-18T07:21:46;45.10;;;18.20;;
36137;SDS011;22194;50.046;21.954;2022-12-18T07:24:14;46.80;;;18.50;;
36137;SDS011;22194;50.046;21.954;2022-12-18T07:26:45;44.60;;;19.20;;
36137;SDS011;22194;50.046;21.954;2022-12-18T07:29:14;48.50;;;19.70;;
36137;SDS011;22194;50.046;21.954;2022-12-18T07:31:42;47.10;;;18.60;;
36137;SDS011;22194;50.046;21.954;2022-12-18T07:34:13;44.70;;;18.50;;
36137;SDS011;22194;50.046;21.954;2022-12-18T07:36:42;48.10;;;19.60;;
36137;SDS011;22194;50.046;21.954;2022-12-18T07:39:11;49.10;;;20.80;;
36137;SDS011;22194;50.046;21.954;2022-12-18T07:41:39;53.40;;;20.90;;
36137;SDS011;22194;50.046;21.954;2022-12-18T07:44:14;49.70;;;21.40;;
36137;SDS011;22194;50.046;21.954;2022-12-18T07:46:41;46.10;;;20.70;;
36137;SDS011;22194;50.046;21.954;2022-12-18T07:49:09;47.70;;;19.40;;
36137;SDS011;22194;50.046;21.954;2022-12-18T07:51:37;46.90;;;18.80;;
36137;SDS011;22194;50.046;21.954;2022-12-18T07:54:05;52.20;;;21.50;;
36137;SDS011;22194;50.046;21.954;2022-12-18T07:56:33;45.20;;;18.80;;
36137;SDS011;22194;50.046;21.954;2022-12-18T07:59:01;46.70;;;19.10;;
36137;SDS011;22194;50.046;21.954;2022-12-18T08:01:31;49.30;;;19.00;;
36137;SDS011;22194;50.046;21.954;2022-12-18T08:03:59;53.00;;;21.50;;
36137;SDS011;22194;50.046;21.954;2022-12-18T08:06:27;48.00;;;18.50;;
36137;SDS011;22194;50.046;21.954;2022-12-18T08:08:55;49.80;;;19.30;;
36137;SDS011;22194;50.046;21.954;2022-12-18T08:11:25;53.00;;;20.40;;
36137;SDS011;22194;50.046;21.954;2022-12-18T08:13:55;54.90;;;20.50;;
36137;SDS011;22194;50.046;21.954;2022-12-18T08:16:23;53.00;;;22.60;;
36137;SDS011;22194;50.046;21.954;2022-12-18T08:18:53;45.20;;;19.10;;
36137;SDS011;22194;50.046;21.954;2022-12-18T08:21:23;46.10;;;18.80;;
36137;SDS011;22194;50.046;21.954;2022-12-18T08:23:55;46.10;;;18.70;;
36137;SDS011;22194;50.046;21.954;2022-12-18T08:26:25;50.00;;;20.40;;
36137;SDS011;22194;50.046;21.954;2022-12-18T08:28:57;48.70;;;20.50;;
36137;SDS011;22194;50.046;21.954;2022-12-18T08:31:28;45.80;;;20.40;;
36137;SDS011;22194;50.046;21.954;2022-12-18T08:33:57;50.20;;;20.80;;
36137;SDS011;22194;50.046;21.954;2022-12-18T08:36:25;46.10;;;20.90;;
36137;SDS011;22194;50.046;21.954;2022-12-18T08:38:54;46.50;;;19.50;;
36137;SDS011;22194;50.046;21.954;2022-12-18T08:41:22;47.70;;;19.40;;
36137;SDS011;22194;50.046;21.954;2022-12-18T08:43:51;44.70;;;19.20;;
36137;SDS011;22194;50.046;21.954;2022-12-18T08:46:38;48.40;;;18.70;;
36137;SDS011;22194;50.046;21.954;2022-12-18T08:49:09;46.70;;;20.20;;
36137;SDS011;22194;50.046;21.954;2022-12-18T08:51:38;49.60;;;19.70;;
36137;SDS011;22194;50.046;21.954;2022-12-18T08:54:08;56.20;;;22.60;;
36137;SDS011;22194;50.046;21.954;2022-12-18T08:56:39;53.20;;;21.80;;
36137;SDS011;22194;50.046;21.954;2022-12-18T08:59:08;58.60;;;23.30;;
36137;SDS011;22194;50.046;21.954;2022-12-18T09:01:44;52.70;;;21.60;;
36137;SDS011;22194;50.046;21.954;2022-12-18T09:04:13;54.80;;;21.30;;
36137;SDS011;22194;50.046;21.954;2022-12-18T09:06:41;54.60;;;23.40;;
36137;SDS011;22194;50.046;21.954;2022-12-18T09:09:10;53.10;;;23.10;;
36137;SDS011;22194;50.046;21.954;2022-12-18T09:11:38;51.10;;;20.80;;
36137;SDS011;22194;50.046;21.954;2022-12-18T09:14:07;51.70;;;23.30;;
36137;SDS011;22194;50.046;21.954;2022-12-18T09:16:36;53.10;;;21.50;;
36137;SDS011;22194;50.046;21.954;2022-12-18T09:19:04;57.40;;;25.10;;
36137;SDS011;22194;50.046;21.954;2022-12-18T09:21:34;52.90;;;21.30;;
36137;SDS011;22194;50.046;21.954;2022-12-18T09:24:04;49.30;;;22.60;;
36137;SDS011;22194;50.046;21.954;2022-12-18T09:26:36;60.50;;;24.30;;
36137;SDS011;22194;50.046;21.954;2022-12-18T09:29:06;57.30;;;23.20;;
36137;SDS011;22194;50.046;21.954;2022-12-18T09:31:35;47.80;;;22.50;;
36137;SDS011;22194;50.046;21.954;2022-12-18T09:34:06;53.90;;;23.40;;
36137;SDS011;22194;50.046;21.954;2022-12-18T09:36:34;56.00;;;23.40;;
36137;SDS011;22194;50.046;21.954;2022-12-18T09:39:03;52.70;;;22.40;;
36137;SDS011;22194;50.046;21.954;2022-12-18T09:41:52;56.40;;;23.70;;
36137;SDS011;22194;50.046;21.954;2022-12-18T09:44:36;51.40;;;22.40;;
36137;SDS011;22194;50.046;21.954;2022-12-18T09:47:17;41.90;;;17.00;;
36137;SDS011;22194;50.046;21.954;2022-12-18T09:55:05;48.40;;;18.70;;
36137;SDS011;22194;50.046;21.954;2022-12-18T09:57:42;44.30;;;18.90;;
36137;SDS011;22194;50.046;21.954;2022-12-18T10:00:20;42.60;;;19.40;;
36137;SDS011;22194;50.046;21.954;2022-12-18T10:02:51;47.40;;;19.20;;
36137;SDS011;22194;50.046;21.954;2022-12-18T10:05:41;41.70;;;17.30;;
36137;SDS011;22194;50.046;21.954;2022-12-18T10:14:22;36.80;;;15.60;;
36137;SDS011;22194;50.046;21.954;2022-12-18T10:17:14;43.50;;;17.90;;
36137;SDS011;22194;50.046;21.954;2022-12-18T10:28:15;45.90;;;19.10;;
36137;SDS011;22194;50.046;21.954;2022-12-18T10:30:46;45.80;;;19.20;;
36137;SDS011;22194;50.046;21.954;2022-12-18T10:33:16;44.70;;;19.00;;
36137;SDS011;22194;50.046;21.954;2022-12-18T10:35:48;42.80;;;17.60;;
36137;SDS011;22194;50.046;21.954;2022-12-18T10:43:42;43.90;;;18.20;;
36137;SDS011;22194;50.046;21.954;2022-12-18T10:51:07;40.40;;;18.40;;
36137;SDS011;22194;50.046;21.954;2022-12-18T10:53:40;47.40;;;20.40;;
36137;SDS011;22194;50.046;21.954;2022-12-18T10:56:10;44.10;;;20.70;;
36137;SDS011;22194;50.046;21.954;2022-12-18T10:58:39;47.10;;;18.30;;
36137;SDS011;22194;50.046;21.954;2022-12-18T11:03:42;44.20;;;17.50;;
36137;SDS011;22194;50.046;21.954;2022-12-18T11:08:42;43.00;;;17.40;;
36137;SDS011;22194;50.046;21.954;2022-12-18T11:11:16;43.80;;;17.90;;
36137;SDS011;22194;50.046;21.954;2022-12-18T11:14:12;48.80;;;19.80;;
36137;SDS011;22194;50.046;21.954;2022-12-18T11:16:49;39.70;;;17.10;;
36137;SDS011;22194;50.046;21.954;2022-12-18T11:19:39;41.40;;;17.00;;
36137;SDS011;22194;50.046;21.954;2022-12-18T11:22:23;46.30;;;19.10;;
36137;SDS011;22194;50.046;21.954;2022-12-18T11:24:58;43.20;;;16.90;;
36137;SDS011;22194;50.046;21.954;2022-12-18T11:27:51;40.20;;;17.40;;
36137;SDS011;22194;50.046;21.954;2022-12-18T11:30:26;45.20;;;18.90;;
36137;SDS011;22194;50.046;21.954;2022-12-18T11:33:08;41.90;;;17.50;;
36137;SDS011;22194;50.046;21.954;2022-12-18T11:35:44;36.20;;;15.90;;
36137;SDS011;22194;50.046;21.954;2022-12-18T11:38:37;41.00;;;18.40;;
36137;SDS011;22194;50.046;21.954;2022-12-18T11:43:53;42.70;;;17.20;;
36137;SDS011;22194;50.046;21.954;2022-12-18T11:46:30;39.00;;;17.20;;
36137;SDS011;22194;50.046;21.954;2022-12-18T11:51:59;41.50;;;19.00;;
36137;SDS011;22194;50.046;21.954;2022-12-18T11:54:45;49.60;;;19.00;;
36137;SDS011;22194;50.046;21.954;2022-12-18T11:57:19;44.50;;;18.70;;
36137;SDS011;22194;50.046;21.954;2022-12-18T12:00:03;47.20;;;19.50;;
36137;SDS011;22194;50.046;21.954;2022-12-18T12:16:39;40.80;;;16.80;;
36137;SDS011;22194;50.046;21.954;2022-12-18T12:30:30;40.20;;;16.80;;
36137;SDS011;22194;50.046;21.954;2022-12-18T12:40:57;39.50;;;15.80;;
36137;SDS011;22194;50.046;21.954;2022-12-18T12:44:05;41.00;;;17.80;;
36137;SDS011;22194;50.046;21.954;2022-12-18T12:46:26;37.80;;;16.90;;
36137;SDS011;22194;50.046;21.954;2022-12-18T12:49:00;38.40;;;16.50;;
36137;SDS011;22194;50.046;21.954;2022-12-18T12:51:38;41.80;;;16.70;;
36137;SDS011;22194;50.046;21.954;2022-12-18T12:54:19;36.00;;;14.80;;
36137;SDS011;22194;50.046;21.954;2022-12-18T12:56:54;36.20;;;14.80;;
36137;SDS011;22194;50.046;21.954;2022-12-18T13:02:19;39.40;;;15.70;;
36137;SDS011;22194;50.046;21.954;2022-12-18T13:05:02;38.80;;;15.50;;
36137;SDS011;22194;50.046;21.954;2022-12-18T13:07:54;42.30;;;17.20;;
36137;SDS011;22194;50.046;21.954;2022-12-18T13:10:31;40.60;;;16.60;;
36137;SDS011;22194;50.046;21.954;2022-12-18T13:13:07;42.40;;;17.10;;
36137;SDS011;22194;50.046;21.954;2022-12-18T13:18:18;42.80;;;16.60;;
36137;SDS011;22194;50.046;21.954;2022-12-18T13:23:32;42.10;;;18.00;;
36137;SDS011;22194;50.046;21.954;2022-12-18T13:34:18;44.40;;;17.40;;
36137;SDS011;22194;50.046;21.954;2022-12-18T13:45:59;49.00;;;19.60;;
36137;SDS011;22194;50.046;21.954;2022-12-18T13:48:36;41.90;;;17.80;;
36137;SDS011;22194;50.046;21.954;2022-12-18T13:51:07;38.60;;;15.50;;
36137;SDS011;22194;50.046;21.954;2022-12-18T13:53:42;41.30;;;17.10;;
36137;SDS011;22194;50.046;21.954;2022-12-18T13:56:17;42.70;;;17.10;;
36137;SDS011;22194;50.046;21.954;2022-12-18T13:59:08;42.80;;;18.00;;
36137;SDS011;22194;50.046;21.954;2022-12-18T14:01:44;46.10;;;20.10;;
36137;SDS011;22194;50.046;21.954;2022-12-18T14:04:18;47.80;;;18.10;;
36137;SDS011;22194;50.046;21.954;2022-12-18T14:07:11;43.50;;;18.70;;
36137;SDS011;22194;50.046;21.954;2022-12-18T14:10:00;44.70;;;18.60;;
36137;SDS011;22194;50.046;21.954;2022-12-18T14:12:50;42.40;;;16.80;;
36137;SDS011;22194;50.046;21.954;2022-12-18T14:15:34;37.00;;;15.20;;
36137;SDS011;22194;50.046;21.954;2022-12-18T14:18:19;37.80;;;15.40;;
36137;SDS011;22194;50.046;21.954;2022-12-18T14:21:00;37.50;;;16.70;;
36137;SDS011;22194;50.046;21.954;2022-12-18T14:23:39;37.90;;;16.70;;
36137;SDS011;22194;50.046;21.954;2022-12-18T14:26:29;43.40;;;15.80;;
36137;SDS011;22194;50.046;21.954;2022-12-18T14:29:14;43.20;;;16.80;;
36137;SDS011;22194;50.046;21.954;2022-12-18T14:32:07;38.50;;;15.80;;
36137;SDS011;22194;50.046;21.954;2022-12-18T14:37:22;28.50;;;11.10;;
36137;SDS011;22194;50.046;21.954;2022-12-18T14:42:25;39.50;;;16.40;;
36137;SDS011;22194;50.046;21.954;2022-12-18T14:50:58;50.60;;;19.80;;
36137;SDS011;22194;50.046;21.954;2022-12-18T14:56:36;41.20;;;16.30;;
36137;SDS011;22194;50.046;21.954;2022-12-18T14:59:15;44.20;;;17.30;;
36137;SDS011;22194;50.046;21.954;2022-12-18T15:05:16;53.60;;;21.80;;
36137;SDS011;22194;50.046;21.954;2022-12-18T15:07:48;50.80;;;20.20;;
36137;SDS011;22194;50.046;21.954;2022-12-18T15:10:20;47.60;;;19.20;;
36137;SDS011;22194;50.046;21.954;2022-12-18T15:13:05;46.50;;;20.20;;
36137;SDS011;22194;50.046;21.954;2022-12-18T15:20:50;48.30;;;19.90;;
36137;SDS011;22194;50.046;21.954;2022-12-18T15:23:23;50.00;;;20.90;;
36137;SDS011;22194;50.046;21.954;2022-12-18T15:26:04;51.80;;;22.10;;
36137;SDS011;22194;50.046;21.954;2022-12-18T15:28:38;39.80;;;17.40;;
36137;SDS011;22194;50.046;21.954;2022-12-18T15:34:30;50.60;;;21.50;;
36137;SDS011;22194;50.046;21.954;2022-12-18T15:36:42;49.80;;;19.70;;
36137;SDS011;22194;50.046;21.954;2022-12-18T15:39:11;48.00;;;19.50;;
36137;SDS011;22194;50.046;21.954;2022-12-18T15:41:40;47.20;;;20.10;;
36137;SDS011;22194;50.046;21.954;2022-12-18T15:44:28;47.80;;;19.30;;
36137;SDS011;22194;50.046;21.954;2022-12-18T15:46:57;43.00;;;18.30;;
36137;SDS011;22194;50.046;21.954;2022-12-18T15:49:26;48.40;;;18.60;;
36137;SDS011;22194;50.046;21.954;2022-12-18T15:51:54;46.30;;;19.50;;
36137;SDS011;22194;50.046;21.954;2022-12-18T15:54:26;44.70;;;18.80;;
36137;SDS011;22194;50.046;21.954;2022-12-18T15:57:15;45.80;;;20.20;;
36137;SDS011;22194;50.046;21.954;2022-12-18T15:59:55;42.40;;;17.00;;
36137;SDS011;22194;50.046;21.954;2022-12-18T16:02:26;49.00;;;19.40;;
36137;SDS011;22194;50.046;21.954;2022-12-18T16:04:58;50.10;;;20.60;;
36137;SDS011;22194;50.046;21.954;2022-12-18T16:07:27;47.40;;;19.20;;
36137;SDS011;22194;50.046;21.954;2022-12-18T16:09:58;41.70;;;17.60;;
36137;SDS011;22194;50.046;21.954;2022-12-18T16:12:30;48.00;;;21.00;;
36137;SDS011;22194;50.046;21.954;2022-12-18T16:15:01;43.00;;;17.80;;
36137;SDS011;22194;50.046;21.954;2022-12-18T16:17:33;45.20;;;17.60;;
36137;SDS011;22194;50.046;21.954;2022-12-18T16:20:01;49.80;;;20.30;;
36137;SDS011;22194;50.046;21.954;2022-12-18T16:22:30;43.80;;;19.40;;
36137;SDS011;22194;50.046;21.954;2022-12-18T16:24:59;42.10;;;18.50;;
36137;SDS011;22194;50.046;21.954;2022-12-18T16:27:27;44.80;;;18.20;;
36137;SDS011;22194;50.046;21.954;2022-12-18T16:29:55;45.80;;;18.20;;
36137;SDS011;22194;50.046;21.954;2022-12-18T16:32:23;48.90;;;19.50;;
36137;SDS011;22194;50.046;21.954;2022-12-18T16:34:52;49.90;;;21.10;;
36137;SDS011;22194;50.046;21.954;2022-12-18T16:37:19;47.80;;;19.50;;
36137;SDS011;22194;50.046;21.954;2022-12-18T16:39:48;46.00;;;20.00;;
36137;SDS011;22194;50.046;21.954;2022-12-18T16:42:18;41.10;;;15.40;;
36137;SDS011;22194;50.046;21.954;2022-12-18T16:44:48;41.30;;;15.60;;
36137;SDS011;22194;50.046;21.954;2022-12-18T16:47:18;40.40;;;15.80;;
36137;SDS011;22194;50.046;21.954;2022-12-18T16:49:47;38.40;;;15.10;;
36137;SDS011;22194;50.046;21.954;2022-12-18T16:52:19;41.20;;;16.80;;
36137;SDS011;22194;50.046;21.954;2022-12-18T16:54:48;41.60;;;17.40;;
36137;SDS011;22194;50.046;21.954;2022-12-18T16:57:19;42.60;;;18.20;;
36137;SDS011;22194;50.046;21.954;2022-12-18T16:59:52;45.10;;;19.60;;
36137;SDS011;22194;50.046;21.954;2022-12-18T17:02:22;43.10;;;18.50;;
36137;SDS011;22194;50.046;21.954;2022-12-18T17:04:55;43.40;;;18.00;;
36137;SDS011;22194;50.046;21.954;2022-12-18T17:07:25;49.40;;;20.10;;
36137;SDS011;22194;50.046;21.954;2022-12-18T17:09:55;49.20;;;20.70;;
36137;SDS011;22194;50.046;21.954;2022-12-18T17:12:24;54.20;;;24.30;;